Time;durP1;ratioP1;P1;durP2;ratioP2;P2;SDS_P1;SDS_P2;PMS_P1;PMS_P2;Temp;Humidity;BMP_temperature;BMP_pressure;BME280_temperature;BME280_humidity;BME280_pressure;Samples;Min_cycle;Max_cycle;Signal;HPM_P1;HPM_P2
2023/12/08 00:00:13;;;;;;;10.65;9.55;;;;;;;;;;5069205;28;20417;-72
2023/12/08 00:02:40;;;;;;;10.25;8.98;;;;;;;;;;5069859;28;20886;-72
2023/12/08 00:05:09;;;;;;;10.30;9.30;;;;;;;;;;5082148;28;20785;-72
2023/12/08 00:07:36;;;;;;;10.50;9.48;;;;;;;;;;5058506;28;20429;-72
2023/12/08 00:10:03;;;;;;;11.35;10.25;;;;;;;;;;5067309;28;20408;-72
2023/12/08 00:12:31;;;;;;;10.40;9.40;;;;;;;;;;5082898;28;20420;-73
2023/12/08 00:14:58;;;;;;;11.02;9.93;;;;;;;;;;5069926;28;20415;-73
2023/12/08 00:17:27;;;;;;;10.67;9.60;;;;;;;;;;5076229;28;20495;-74
2023/12/08 00:19:54;;;;;;;10.90;9.80;;;;;;;;;;5056557;28;20936;-73
2023/12/08 00:22:21;;;;;;;9.70;8.80;;;;;;;;;;5062399;28;20439;-73
2023/12/08 00:24:49;;;;;;;10.20;9.20;;;;;;;;;;5066945;28;20411;-73
2023/12/08 00:27:16;;;;;;;10.52;9.40;;;;;;;;;;5072360;28;20474;-73
2023/12/08 00:29:44;;;;;;;10.70;9.70;;;;;;;;;;5069164;28;20408;-73
2023/12/08 00:32:12;;;;;;;10.10;9.10;;;;;;;;;;5075526;28;20416;-73
2023/12/08 00:34:40;;;;;;;9.70;8.70;;;;;;;;;;5072478;28;20453;-73
2023/12/08 00:37:08;;;;;;;10.63;9.63;;;;;;;;;;5064923;28;20527;-73
2023/12/08 00:39:35;;;;;;;9.70;8.70;;;;;;;;;;5077539;28;20416;-73
2023/12/08 00:42:02;;;;;;;9.40;8.20;;;;;;;;;;5072958;28;20417;-73
2023/12/08 00:44:29;;;;;;;10.38;8.50;;;;;;;;;;5072133;28;20411;-73
2023/12/08 00:46:57;;;;;;;10.02;8.88;;;;;;;;;;5073035;28;20408;-73
2023/12/08 00:49:24;;;;;;;9.57;8.60;;;;;;;;;;5076010;28;20435;-73
2023/12/08 00:51:51;;;;;;;9.73;8.73;;;;;;;;;;5067954;28;20432;-73
2023/12/08 00:54:18;;;;;;;9.73;8.73;;;;;;;;;;5066567;28;20436;-73
2023/12/08 00:56:46;;;;;;;10.07;8.37;;;;;;;;;;5065308;28;20441;-73
2023/12/08 00:59:13;;;;;;;9.27;8.38;;;;;;;;;;5071619;28;20408;-73
2023/12/08 01:01:40;;;;;;;9.70;8.80;;;;;;;;;;5070286;28;20414;-73
2023/12/08 01:04:08;;;;;;;10.55;9.32;;;;;;;;;;5073432;28;20414;-73
2023/12/08 01:06:35;;;;;;;9.35;8.35;;;;;;;;;;5074495;28;20912;-73
2023/12/08 01:09:02;;;;;;;10.10;9.10;;;;;;;;;;5064754;28;20930;-73
2023/12/08 01:11:29;;;;;;;10.10;8.75;;;;;;;;;;5062906;28;20890;-73
2023/12/08 01:13:56;;;;;;;9.98;8.98;;;;;;;;;;5083508;28;20778;-72
2023/12/08 01:16:23;;;;;;;9.00;8.10;;;;;;;;;;5072907;28;20891;-72
2023/12/08 01:18:50;;;;;;;9.90;8.90;;;;;;;;;;5067152;28;20413;-73
2023/12/08 01:21:19;;;;;;;9.40;8.18;;;;;;;;;;5065862;28;20429;-71
2023/12/08 01:23:46;;;;;;;10.60;9.50;;;;;;;;;;5073148;28;20443;-71
2023/12/08 01:26:13;;;;;;;9.50;8.60;;;;;;;;;;5079828;28;20405;-74
2023/12/08 01:28:41;;;;;;;8.75;7.85;;;;;;;;;;5068340;28;20427;-71
2023/12/08 01:31:08;;;;;;;9.57;8.55;;;;;;;;;;5076687;28;20493;-71
2023/12/08 01:33:35;;;;;;;9.60;8.68;;;;;;;;;;5066923;28;20890;-72
2023/12/08 01:36:02;;;;;;;10.20;9.20;;;;;;;;;;5077240;28;20438;-73
2023/12/08 01:38:31;;;;;;;9.20;8.30;;;;;;;;;;5073486;28;20409;-72
2023/12/08 01:40:58;;;;;;;9.80;8.80;;;;;;;;;;5078098;28;20408;-71
2023/12/08 01:43:25;;;;;;;10.07;8.85;;;;;;;;;;5074214;28;20414;-73
2023/12/08 01:45:53;;;;;;;9.27;8.40;;;;;;;;;;5077320;28;20496;-72
2023/12/08 01:48:20;;;;;;;9.82;8.82;;;;;;;;;;5070349;28;20931;-73
2023/12/08 01:50:47;;;;;;;9.05;7.90;;;;;;;;;;5079499;28;20439;-73
2023/12/08 01:53:14;;;;;;;9.90;8.90;;;;;;;;;;5071908;28;20414;-71
2023/12/08 01:55:43;;;;;;;9.20;8.30;;;;;;;;;;5071301;28;20897;-72
2023/12/08 01:58:10;;;;;;;11.20;8.88;;;;;;;;;;5078415;28;20769;-71
2023/12/08 02:00:37;;;;;;;9.82;8.82;;;;;;;;;;5086162;28;20413;-72
2023/12/08 02:03:04;;;;;;;9.80;8.87;;;;;;;;;;5079750;28;20420;-71
2023/12/08 02:05:32;;;;;;;10.35;9.25;;;;;;;;;;5065462;28;20494;-72
2023/12/08 02:07:59;;;;;;;10.02;9.02;;;;;;;;;;5084042;28;20788;-71
2023/12/08 02:10:26;;;;;;;10.18;9.07;;;;;;;;;;5073713;28;20921;-71
2023/12/08 02:12:54;;;;;;;11.17;9.97;;;;;;;;;;5065088;28;20421;-72
2023/12/08 02:15:22;;;;;;;9.90;8.70;;;;;;;;;;5065048;28;20795;-72
2023/12/08 02:17:49;;;;;;;10.63;9.17;;;;;;;;;;5055455;28;20417;-72
2023/12/08 02:20:17;;;;;;;10.30;9.30;;;;;;;;;;5071553;28;20428;-72
2023/12/08 02:22:44;;;;;;;10.13;9.13;;;;;;;;;;5076992;28;20851;-71
2023/12/08 02:25:12;;;;;;;10.63;9.30;;;;;;;;;;5072893;28;20447;-72
2023/12/08 02:27:40;;;;;;;10.73;9.60;;;;;;;;;;5070550;28;20421;-71
2023/12/08 02:30:08;;;;;;;11.27;10.10;;;;;;;;;;5076598;28;20803;-72
2023/12/08 02:32:36;;;;;;;11.23;9.85;;;;;;;;;;5070032;28;20409;-71
2023/12/08 02:35:06;;;;;;;10.70;9.70;;;;;;;;;;5075803;28;20825;-71
2023/12/08 02:37:36;;;;;;;10.27;9.27;;;;;;;;;;5070738;28;20424;-72
2023/12/08 02:40:05;;;;;;;10.35;9.35;;;;;;;;;;5083812;28;20437;-72
2023/12/08 02:42:33;;;;;;;11.38;9.93;;;;;;;;;;5061611;28;20811;-73
2023/12/08 02:45:00;;;;;;;9.60;8.60;;;;;;;;;;5063074;28;20431;-72
2023/12/08 02:47:27;;;;;;;11.60;10.20;;;;;;;;;;5076970;28;20412;-72
2023/12/08 02:49:54;;;;;;;10.93;9.77;;;;;;;;;;5059000;28;20435;-72
2023/12/08 02:52:21;;;;;;;11.43;10.27;;;;;;;;;;5103419;22;20538;-67
2023/12/08 02:54:48;;;;;;;11.32;10.13;;;;;;;;;;5086470;28;20413;-67
2023/12/08 02:57:15;;;;;;;11.90;10.10;;;;;;;;;;5079114;28;20421;-68
2023/12/08 02:59:44;;;;;;;11.50;10.30;;;;;;;;;;5082486;28;20410;-66
2023/12/08 03:02:11;;;;;;;12.07;10.77;;;;;;;;;;5082643;28;20416;-67
2023/12/08 03:04:38;;;;;;;11.02;9.90;;;;;;;;;;5067130;28;20452;-67
2023/12/08 03:07:05;;;;;;;11.93;10.63;;;;;;;;;;5073110;28;20855;-67
2023/12/08 03:09:32;;;;;;;11.80;10.50;;;;;;;;;;5066899;28;20512;-67
2023/12/08 03:11:59;;;;;;;11.98;10.05;;;;;;;;;;5060057;28;20496;-67
2023/12/08 03:14:26;;;;;;;11.37;10.17;;;;;;;;;;5073772;28;20414;-67
2023/12/08 03:16:54;;;;;;;12.18;10.90;;;;;;;;;;5075487;28;20414;-66
2023/12/08 03:19:21;;;;;;;11.25;10.00;;;;;;;;;;5068664;28;20420;-70
2023/12/08 03:21:48;;;;;;;12.40;10.10;;;;;;;;;;5079384;28;20760;-67
2023/12/08 03:24:16;;;;;;;11.77;10.35;;;;;;;;;;5072920;28;20414;-67
2023/12/08 03:26:43;;;;;;;11.88;10.60;;;;;;;;;;5065956;28;20411;-67
2023/12/08 03:29:10;;;;;;;13.63;10.60;;;;;;;;;;5071616;28;20487;-67
2023/12/08 03:31:37;;;;;;;11.70;10.30;;;;;;;;;;5071715;28;20411;-66
2023/12/08 03:34:05;;;;;;;10.57;9.48;;;;;;;;;;5073952;28;20520;-66
2023/12/08 03:36:32;;;;;;;11.77;10.48;;;;;;;;;;5055501;28;20846;-70
2023/12/08 03:38:59;;;;;;;12.93;11.25;;;;;;;;;;5067828;28;20414;-69
2023/12/08 03:41:26;;;;;;;12.07;10.88;;;;;;;;;;5064124;28;20407;-67
2023/12/08 03:43:53;;;;;;;13.15;11.10;;;;;;;;;;5075818;28;20440;-67
2023/12/08 03:46:20;;;;;;;12.53;11.23;;;;;;;;;;5062290;28;20491;-68
2023/12/08 03:48:47;;;;;;;12.90;11.50;;;;;;;;;;5056623;28;20430;-68
2023/12/08 03:51:16;;;;;;;12.52;11.23;;;;;;;;;;5071411;28;20421;-69
2023/12/08 03:53:43;;;;;;;13.52;11.73;;;;;;;;;;5076396;28;20506;-66
2023/12/08 03:56:10;;;;;;;14.75;11.80;;;;;;;;;;5068335;28;20409;-68
2023/12/08 03:58:37;;;;;;;13.25;11.85;;;;;;;;;;5067823;28;20418;-68
2023/12/08 04:01:04;;;;;;;13.70;12.30;;;;;;;;;;5074479;28;20497;-68
2023/12/08 04:03:31;;;;;;;13.95;12.55;;;;;;;;;;5066227;28;20493;-67
2023/12/08 04:05:59;;;;;;;13.73;12.20;;;;;;;;;;5057056;28;20413;-69
2023/12/08 04:08:27;;;;;;;13.90;12.50;;;;;;;;;;5062892;28;20798;-68
2023/12/08 04:10:54;;;;;;;14.48;12.40;;;;;;;;;;5055484;28;20442;-67
2023/12/08 04:13:21;;;;;;;14.13;12.63;;;;;;;;;;5063286;28;20495;-68
2023/12/08 04:15:50;;;;;;;14.48;12.90;;;;;;;;;;5065367;28;20414;-68
2023/12/08 04:18:17;;;;;;;14.98;12.75;;;;;;;;;;5066728;28;20509;-68
2023/12/08 04:20:44;;;;;;;14.43;12.93;;;;;;;;;;5065935;28;20897;-68
2023/12/08 04:23:11;;;;;;;15.70;14.07;;;;;;;;;;5061752;28;20806;-68
2023/12/08 04:25:39;;;;;;;14.93;13.32;;;;;;;;;;5071719;28;20893;-68
2023/12/08 04:28:06;;;;;;;15.52;13.50;;;;;;;;;;5067337;28;20420;-69
2023/12/08 04:30:34;;;;;;;16.60;14.27;;;;;;;;;;5066090;28;20425;-66
2023/12/08 04:33:01;;;;;;;18.95;14.95;;;;;;;;;;5060215;28;20429;-66
2023/12/08 04:35:28;;;;;;;17.17;14.32;;;;;;;;;;5072258;28;20516;-69
2023/12/08 04:37:55;;;;;;;17.20;15.25;;;;;;;;;;5071836;28;20409;-69
2023/12/08 04:40:22;;;;;;;18.10;15.18;;;;;;;;;;5073174;28;20412;-68
2023/12/08 04:42:50;;;;;;;17.33;14.98;;;;;;;;;;5071134;28;20487;-69
2023/12/08 04:45:17;;;;;;;19.35;16.05;;;;;;;;;;5076879;28;20441;-68
2023/12/08 04:47:44;;;;;;;18.47;16.40;;;;;;;;;;5066543;28;20422;-69
2023/12/08 04:50:11;;;;;;;19.08;16.25;;;;;;;;;;5076237;28;20436;-68
2023/12/08 04:52:39;;;;;;;20.23;15.68;;;;;;;;;;5066592;28;20415;-68
2023/12/08 04:55:06;;;;;;;17.95;14.75;;;;;;;;;;5079795;28;20880;-69
2023/12/08 04:57:33;;;;;;;20.85;16.00;;;;;;;;;;5062212;28;20416;-69
2023/12/08 05:00:02;;;;;;;18.48;15.63;;;;;;;;;;5073363;28;20435;-68
2023/12/08 05:02:29;;;;;;;18.33;15.40;;;;;;;;;;5057599;28;20523;-68
2023/12/08 05:04:56;;;;;;;19.40;15.40;;;;;;;;;;5066133;28;20406;-68
2023/12/08 05:07:23;;;;;;;18.53;15.40;;;;;;;;;;5074000;28;20569;-68
2023/12/08 05:09:51;;;;;;;17.20;15.02;;;;;;;;;;5067201;28;20513;-68
2023/12/08 05:12:18;;;;;;;19.30;15.40;;;;;;;;;;5054843;28;20409;-68
2023/12/08 05:14:45;;;;;;;19.50;15.90;;;;;;;;;;5076247;28;20406;-68
2023/12/08 05:17:13;;;;;;;20.90;15.93;;;;;;;;;;5073019;28;20429;-68
2023/12/08 05:19:41;;;;;;;20.27;16.73;;;;;;;;;;5075886;28;20417;-67
2023/12/08 05:22:08;;;;;;;20.50;17.20;;;;;;;;;;5073264;28;20501;-69
2023/12/08 05:24:35;;;;;;;19.50;16.80;;;;;;;;;;5082323;28;20410;-68
2023/12/08 05:27:02;;;;;;;20.70;16.40;;;;;;;;;;5068512;28;20418;-69
2023/12/08 05:29:29;;;;;;;19.67;15.90;;;;;;;;;;5076520;28;20525;-69
2023/12/08 05:31:56;;;;;;;18.92;15.70;;;;;;;;;;5063385;28;20433;-68
2023/12/08 05:34:24;;;;;;;20.65;17.05;;;;;;;;;;5061446;28;20874;-67
2023/12/08 05:36:51;;;;;;;21.45;17.48;;;;;;;;;;5065859;28;20513;-69
2023/12/08 05:39:18;;;;;;;23.67;18.00;;;;;;;;;;5064971;28;20464;-67
2023/12/08 05:41:46;;;;;;;23.00;18.90;;;;;;;;;;5059708;28;20449;-67
2023/12/08 05:44:13;;;;;;;24.05;18.50;;;;;;;;;;5060089;28;20729;-68
2023/12/08 05:46:40;;;;;;;20.00;16.50;;;;;;;;;;5066661;28;20495;-69
2023/12/08 05:49:07;;;;;;;22.17;17.17;;;;;;;;;;5073610;28;20450;-69
2023/12/08 05:51:35;;;;;;;22.25;16.65;;;;;;;;;;5074614;28;21071;-69
2023/12/08 05:54:03;;;;;;;23.15;18.83;;;;;;;;;;5061893;28;21124;-69
2023/12/08 05:56:30;;;;;;;23.93;17.67;;;;;;;;;;5067021;28;20415;-68
2023/12/08 05:58:57;;;;;;;20.55;16.75;;;;;;;;;;5059006;28;20469;-69
2023/12/08 06:01:24;;;;;;;20.80;17.42;;;;;;;;;;5060708;28;20431;-68
2023/12/08 06:03:51;;;;;;;22.80;17.63;;;;;;;;;;5055664;28;20428;-68
2023/12/08 06:06:18;;;;;;;20.90;16.80;;;;;;;;;;5061596;28;20443;-68
2023/12/08 06:08:47;;;;;;;20.52;17.50;;;;;;;;;;5072607;28;20489;-67
2023/12/08 06:11:14;;;;;;;19.52;16.85;;;;;;;;;;5066922;28;20424;-67
2023/12/08 06:13:41;;;;;;;19.63;16.45;;;;;;;;;;5062780;28;20660;-68
2023/12/08 06:16:08;;;;;;;20.80;17.15;;;;;;;;;;5065851;28;20423;-66
2023/12/08 06:18:35;;;;;;;21.05;17.25;;;;;;;;;;5070393;28;20408;-68
2023/12/08 06:21:03;;;;;;;21.80;17.30;;;;;;;;;;5095344;28;20420;-67
2023/12/08 06:23:30;;;;;;;21.67;17.60;;;;;;;;;;5084181;28;20580;-68
2023/12/08 06:25:59;;;;;;;20.88;17.20;;;;;;;;;;5089799;28;20445;-67
2023/12/08 06:28:26;;;;;;;19.38;16.75;;;;;;;;;;5087077;28;20417;-67
2023/12/08 06:30:53;;;;;;;19.27;16.80;;;;;;;;;;5076111;28;20437;-68
2023/12/08 06:33:20;;;;;;;19.38;16.17;;;;;;;;;;5086301;28;20549;-68
2023/12/08 06:35:47;;;;;;;18.00;16.10;;;;;;;;;;5078922;28;20420;-69
2023/12/08 06:38:15;;;;;;;18.48;15.00;;;;;;;;;;5072062;28;20864;-67
2023/12/08 06:40:42;;;;;;;18.38;15.60;;;;;;;;;;5081954;28;20425;-69
2023/12/08 06:43:10;;;;;;;18.35;16.27;;;;;;;;;;5072983;28;20513;-69
2023/12/08 06:45:37;;;;;;;17.48;15.48;;;;;;;;;;5071705;28;20444;-69
2023/12/08 06:48:05;;;;;;;17.07;15.17;;;;;;;;;;5080291;28;20411;-70
2023/12/08 06:50:32;;;;;;;18.20;16.30;;;;;;;;;;5074965;28;20429;-69
2023/12/08 06:52:59;;;;;;;17.25;14.98;;;;;;;;;;5063953;28;20421;-69
2023/12/08 06:55:26;;;;;;;17.05;15.25;;;;;;;;;;5074647;28;20430;-69
2023/12/08 06:57:53;;;;;;;16.85;15.13;;;;;;;;;;5081388;28;20461;-69
2023/12/08 07:00:22;;;;;;;18.10;15.00;;;;;;;;;;5070731;28;20435;-69
2023/12/08 07:02:49;;;;;;;18.20;16.17;;;;;;;;;;5084808;28;20418;-67
2023/12/08 07:05:19;;;;;;;17.38;15.57;;;;;;;;;;5078883;28;20435;-69
2023/12/08 07:07:46;;;;;;;18.15;15.57;;;;;;;;;;5066654;28;20485;-68
2023/12/08 07:10:14;;;;;;;17.92;16.02;;;;;;;;;;5082410;28;20484;-68
2023/12/08 07:12:42;;;;;;;17.77;15.80;;;;;;;;;;5081536;28;20414;-70
2023/12/08 07:15:09;;;;;;;18.60;16.60;;;;;;;;;;5078282;28;20420;-68
2023/12/08 07:17:38;;;;;;;17.25;15.38;;;;;;;;;;5083773;28;20804;-68
2023/12/08 07:20:06;;;;;;;17.97;16.07;;;;;;;;;;5081256;28;20412;-68
2023/12/08 07:22:33;;;;;;;16.48;14.77;;;;;;;;;;5082336;28;20405;-69
2023/12/08 07:25:00;;;;;;;17.15;15.43;;;;;;;;;;5082966;28;20517;-68
2023/12/08 07:27:27;;;;;;;19.10;16.05;;;;;;;;;;5089842;28;20414;-68
2023/12/08 07:29:54;;;;;;;18.48;15.82;;;;;;;;;;5087704;28;20437;-68
2023/12/08 07:32:21;;;;;;;17.15;15.32;;;;;;;;;;5071073;28;20434;-68
2023/12/08 07:34:50;;;;;;;17.98;15.65;;;;;;;;;;5086389;28;20422;-68
2023/12/08 07:37:17;;;;;;;17.70;15.50;;;;;;;;;;5083672;28;20441;-68
2023/12/08 07:39:44;;;;;;;17.40;15.50;;;;;;;;;;5074184;28;20765;-69
2023/12/08 07:42:11;;;;;;;17.70;15.80;;;;;;;;;;5072355;28;20464;-69
2023/12/08 07:44:38;;;;;;;16.83;15.02;;;;;;;;;;5061162;28;20418;-68
2023/12/08 07:47:06;;;;;;;18.23;16.33;;;;;;;;;;5064734;28;20985;-68
2023/12/08 07:49:33;;;;;;;17.15;15.35;;;;;;;;;;5079586;28;20929;-69
2023/12/08 07:52:01;;;;;;;18.45;16.25;;;;;;;;;;5063847;28;20402;-68
2023/12/08 07:54:31;;;;;;;18.40;16.40;;;;;;;;;;5065584;28;20855;-68
2023/12/08 07:56:59;;;;;;;18.57;16.57;;;;;;;;;;5062202;28;20600;-68
2023/12/08 07:59:26;;;;;;;18.67;16.67;;;;;;;;;;5055366;28;20424;-68
2023/12/08 08:01:53;;;;;;;18.65;16.02;;;;;;;;;;5062438;28;20424;-67
2023/12/08 08:04:20;;;;;;;19.27;17.17;;;;;;;;;;5057828;28;20458;-68
2023/12/08 08:06:48;;;;;;;18.83;16.83;;;;;;;;;;5066224;28;20417;-69
2023/12/08 08:09:17;;;;;;;17.85;15.95;;;;;;;;;;5061272;28;20450;-69
2023/12/08 08:11:44;;;;;;;17.67;15.75;;;;;;;;;;5066843;28;20975;-69
2023/12/08 08:14:11;;;;;;;18.77;16.77;;;;;;;;;;5077811;28;20445;-69
2023/12/08 08:16:38;;;;;;;19.08;17.17;;;;;;;;;;5071206;28;20586;-69
2023/12/08 08:19:05;;;;;;;19.38;17.27;;;;;;;;;;5076060;28;20429;-69
2023/12/08 08:21:33;;;;;;;18.77;16.77;;;;;;;;;;5069625;28;20470;-69
2023/12/08 08:24:00;;;;;;;18.20;16.20;;;;;;;;;;5070516;28;20443;-70
2023/12/08 08:26:28;;;;;;;17.92;16.02;;;;;;;;;;5080413;28;20415;-70
2023/12/08 08:28:55;;;;;;;18.90;16.35;;;;;;;;;;5054383;28;20414;-69
2023/12/08 08:31:22;;;;;;;18.40;16.15;;;;;;;;;;5074385;28;20435;-70
2023/12/08 08:33:49;;;;;;;18.13;15.83;;;;;;;;;;5062258;28;20451;-69
2023/12/08 08:36:16;;;;;;;18.52;16.52;;;;;;;;;;5075422;28;20442;-71
2023/12/08 08:38:43;;;;;;;19.17;17.08;;;;;;;;;;5072983;28;20503;-70
2023/12/08 08:41:10;;;;;;;20.17;16.35;;;;;;;;;;5065143;28;20750;-69
2023/12/08 08:43:39;;;;;;;18.25;16.15;;;;;;;;;;5060564;28;20849;-70
2023/12/08 08:46:06;;;;;;;17.13;15.20;;;;;;;;;;5054700;28;20461;-68
2023/12/08 08:48:33;;;;;;;17.07;15.27;;;;;;;;;;5076625;28;20827;-69
2023/12/08 08:51:00;;;;;;;17.27;15.57;;;;;;;;;;5072363;28;20426;-69
2023/12/08 08:53:29;;;;;;;18.30;16.33;;;;;;;;;;5076520;28;20425;-68
2023/12/08 08:55:56;;;;;;;17.40;15.35;;;;;;;;;;5073587;28;20417;-68
2023/12/08 08:58:24;;;;;;;17.60;15.70;;;;;;;;;;5069118;28;20883;-71
2023/12/08 09:00:52;;;;;;;17.63;15.63;;;;;;;;;;5060608;28;20526;-71
2023/12/08 09:03:19;;;;;;;17.60;15.70;;;;;;;;;;5063227;28;20430;-70
2023/12/08 09:05:47;;;;;;;17.48;15.68;;;;;;;;;;5067428;28;20433;-72
2023/12/08 09:08:14;;;;;;;17.63;15.40;;;;;;;;;;5070985;28;20865;-70
2023/12/08 09:10:44;;;;;;;17.55;15.60;;;;;;;;;;5059430;28;20855;-70
2023/12/08 09:13:11;;;;;;;17.30;15.50;;;;;;;;;;5076773;28;20794;-70
2023/12/08 09:15:38;;;;;;;17.10;15.30;;;;;;;;;;5048568;28;20528;-70
2023/12/08 09:18:07;;;;;;;18.58;16.38;;;;;;;;;;5063307;28;20416;-70
2023/12/08 09:20:34;;;;;;;17.95;16.00;;;;;;;;;;5075996;28;20410;-70
2023/12/08 09:23:01;;;;;;;18.13;16.23;;;;;;;;;;5074102;28;20424;-70
2023/12/08 09:25:28;;;;;;;19.13;16.70;;;;;;;;;;5077635;28;20436;-70
2023/12/08 09:27:55;;;;;;;19.58;16.90;;;;;;;;;;5069866;28;21996;-70
2023/12/08 09:30:22;;;;;;;19.05;16.35;;;;;;;;;;5073510;28;20421;-71
2023/12/08 09:32:50;;;;;;;19.35;17.00;;;;;;;;;;5061139;28;20404;-71
2023/12/08 09:35:19;;;;;;;19.20;17.07;;;;;;;;;;5070325;28;20516;-70
2023/12/08 09:37:46;;;;;;;18.23;16.33;;;;;;;;;;5074271;28;20507;-71
2023/12/08 09:40:15;;;;;;;19.10;17.10;;;;;;;;;;5079279;28;20410;-70
2023/12/08 09:42:44;;;;;;;19.30;17.20;;;;;;;;;;5069548;28;20643;-70
2023/12/08 09:45:11;;;;;;;19.88;16.85;;;;;;;;;;5070320;28;20426;-71
2023/12/08 09:47:38;;;;;;;19.13;16.60;;;;;;;;;;5078705;28;20874;-71
2023/12/08 09:50:06;;;;;;;17.80;15.90;;;;;;;;;;5062751;28;20433;-70
2023/12/08 09:52:35;;;;;;;19.10;17.00;;;;;;;;;;5076334;28;20499;-71
2023/12/08 09:55:03;;;;;;;19.40;16.90;;;;;;;;;;5054953;28;20424;-71
2023/12/08 09:57:30;;;;;;;21.48;18.35;;;;;;;;;;5079677;28;20488;-71
2023/12/08 09:59:59;;;;;;;18.60;16.70;;;;;;;;;;5064402;28;20450;-71
2023/12/08 10:02:26;;;;;;;19.08;16.60;;;;;;;;;;5066274;28;20489;-71
2023/12/08 10:04:53;;;;;;;19.42;17.27;;;;;;;;;;5076504;28;20408;-68
2023/12/08 10:07:22;;;;;;;20.45;17.42;;;;;;;;;;5073721;28;20441;-69
2023/12/08 10:09:50;;;;;;;19.02;16.73;;;;;;;;;;5067952;28;20438;-70
2023/12/08 10:12:17;;;;;;;18.80;16.80;;;;;;;;;;5075855;28;20548;-68
2023/12/08 10:14:54;;;;;;;18.58;16.65;;;;;;;;;;5076074;28;20438;-67
2023/12/08 10:17:21;;;;;;;19.03;17.03;;;;;;;;;;5077149;28;20421;-68
2023/12/08 10:19:49;;;;;;;18.65;16.40;;;;;;;;;;5080202;28;20412;-70
2023/12/08 10:22:16;;;;;;;18.33;15.82;;;;;;;;;;5072370;28;20456;-68
2023/12/08 10:24:43;;;;;;;17.95;16.15;;;;;;;;;;5062259;28;20434;-69
2023/12/08 10:27:12;;;;;;;17.88;15.98;;;;;;;;;;5069977;28;20433;-65
2023/12/08 10:29:39;;;;;;;18.20;15.15;;;;;;;;;;5066578;28;20814;-74
2023/12/08 10:32:06;;;;;;;18.73;16.52;;;;;;;;;;5074909;28;20418;-68
2023/12/08 10:34:33;;;;;;;17.52;15.63;;;;;;;;;;5068712;28;20423;-69
2023/12/08 10:37:00;;;;;;;18.15;15.32;;;;;;;;;;5065199;28;20425;-69
2023/12/08 10:39:28;;;;;;;16.00;14.30;;;;;;;;;;5074143;28;20929;-69
2023/12/08 10:41:55;;;;;;;16.00;14.30;;;;;;;;;;5079485;28;20508;-69
2023/12/08 10:44:24;;;;;;;16.42;14.73;;;;;;;;;;5079316;28;20499;-70
2023/12/08 10:46:51;;;;;;;15.20;13.70;;;;;;;;;;5065506;28;20431;-69
2023/12/08 10:49:19;;;;;;;17.05;15.32;;;;;;;;;;5069450;28;20416;-69
2023/12/08 10:51:48;;;;;;;15.93;14.32;;;;;;;;;;5066904;28;20506;-70
2023/12/08 10:54:16;;;;;;;15.85;14.15;;;;;;;;;;5065798;28;20500;-70
2023/12/08 10:56:43;;;;;;;16.23;14.52;;;;;;;;;;5073785;28;20472;-69
2023/12/08 10:59:11;;;;;;;17.05;15.25;;;;;;;;;;5078862;28;20405;-69
2023/12/08 11:01:40;;;;;;;16.13;14.43;;;;;;;;;;5076385;28;20422;-69
2023/12/08 11:04:11;;;;;;;16.65;14.95;;;;;;;;;;5074742;28;20903;-69
2023/12/08 11:06:42;;;;;;;16.13;14.43;;;;;;;;;;5077082;28;20490;-68
2023/12/08 11:09:10;;;;;;;15.98;14.27;;;;;;;;;;5058927;28;20479;-69
2023/12/08 11:11:39;;;;;;;16.10;14.45;;;;;;;;;;5071535;28;20435;-68
2023/12/08 11:14:10;;;;;;;15.63;13.67;;;;;;;;;;5052158;28;20464;-69
2023/12/08 11:16:45;;;;;;;16.77;14.45;;;;;;;;;;5067040;28;20756;-69
2023/12/08 11:19:12;;;;;;;17.17;15.38;;;;;;;;;;5065134;28;21055;-70
2023/12/08 11:21:39;;;;;;;15.60;13.90;;;;;;;;;;5065131;28;20434;-69
2023/12/08 11:24:08;;;;;;;16.80;14.77;;;;;;;;;;5066653;28;20719;-69
2023/12/08 11:26:39;;;;;;;16.30;14.23;;;;;;;;;;5065633;28;20438;-68
2023/12/08 11:29:09;;;;;;;17.80;15.90;;;;;;;;;;5065890;28;20429;-69
2023/12/08 11:31:41;;;;;;;17.80;16.00;;;;;;;;;;5071066;28;20838;-70
2023/12/08 11:34:12;;;;;;;18.70;16.50;;;;;;;;;;5076506;28;20409;-69
2023/12/08 11:36:44;;;;;;;17.17;15.38;;;;;;;;;;5074945;28;20455;-69
2023/12/08 11:39:30;;;;;;;18.20;16.20;;;;;;;;;;5070347;28;20409;-70
2023/12/08 11:41:57;;;;;;;18.58;16.58;;;;;;;;;;5063713;28;20434;-69
2023/12/08 11:44:24;;;;;;;18.77;16.88;;;;;;;;;;5065341;28;20952;-69
2023/12/08 11:46:56;;;;;;;18.63;16.08;;;;;;;;;;5052330;28;20464;-70
2023/12/08 11:49:23;;;;;;;19.45;17.27;;;;;;;;;;5069882;28;20414;-69
2023/12/08 11:52:05;;;;;;;18.02;16.13;;;;;;;;;;5074752;28;20442;-69
2023/12/08 11:54:36;;;;;;;18.80;16.90;;;;;;;;;;5074304;28;20460;-70
2023/12/08 11:57:04;;;;;;;18.60;16.40;;;;;;;;;;5069461;28;20516;-69
2023/12/08 11:59:31;;;;;;;19.35;16.35;;;;;;;;;;5079720;28;20418;-70
2023/12/08 12:01:59;;;;;;;19.30;15.90;;;;;;;;;;5059313;28;20447;-69
2023/12/08 12:04:28;;;;;;;17.40;15.60;;;;;;;;;;5067240;28;20433;-69
2023/12/08 12:06:55;;;;;;;18.83;16.45;;;;;;;;;;5072153;28;20441;-69
2023/12/08 12:09:22;;;;;;;19.30;17.20;;;;;;;;;;5067070;28;20425;-69
2023/12/08 12:11:52;;;;;;;18.13;16.23;;;;;;;;;;5072045;28;20438;-69
2023/12/08 12:14:20;;;;;;;18.05;16.15;;;;;;;;;;5059917;28;20453;-69
2023/12/08 12:16:48;;;;;;;18.45;16.45;;;;;;;;;;5067027;28;20432;-70
2023/12/08 12:19:16;;;;;;;18.30;16.40;;;;;;;;;;5072146;28;20848;-69
2023/12/08 12:21:43;;;;;;;20.03;16.80;;;;;;;;;;5074384;28;20419;-69
2023/12/08 12:24:11;;;;;;;19.92;16.30;;;;;;;;;;5074470;28;20418;-68
2023/12/08 12:26:38;;;;;;;19.10;17.10;;;;;;;;;;5064132;28;20424;-67
2023/12/08 12:29:05;;;;;;;19.65;17.55;;;;;;;;;;5070682;28;20909;-68
2023/12/08 12:31:33;;;;;;;19.58;17.52;;;;;;;;;;5062503;28;20881;-67
2023/12/08 12:34:00;;;;;;;21.52;17.83;;;;;;;;;;5075799;28;20444;-68
2023/12/08 12:36:29;;;;;;;19.52;16.83;;;;;;;;;;5071765;28;20434;-68
2023/12/08 12:38:56;;;;;;;20.25;18.15;;;;;;;;;;5052471;28;20413;-69
2023/12/08 12:41:24;;;;;;;19.70;16.27;;;;;;;;;;5061643;28;20426;-67
2023/12/08 12:43:56;;;;;;;18.45;16.23;;;;;;;;;;5069521;28;20782;-68
2023/12/08 12:46:25;;;;;;;19.58;17.45;;;;;;;;;;5070474;28;20441;-68
2023/12/08 12:48:52;;;;;;;20.15;17.95;;;;;;;;;;5064862;28;20450;-68
2023/12/08 12:51:33;;;;;;;19.60;17.50;;;;;;;;;;5064903;28;20449;-67
2023/12/08 12:54:00;;;;;;;19.55;17.25;;;;;;;;;;5075339;28;20414;-69
2023/12/08 12:56:27;;;;;;;21.38;17.40;;;;;;;;;;5071989;28;20423;-69
2023/12/08 12:59:04;;;;;;;20.17;17.70;;;;;;;;;;5053757;28;20415;-68
2023/12/08 13:01:31;;;;;;;25.10;19.40;;;;;;;;;;5072589;22;20472;-74
2023/12/08 13:03:58;;;;;;;21.25;18.27;;;;;;;;;;5074837;28;21081;-73
2023/12/08 13:06:29;;;;;;;21.83;17.88;;;;;;;;;;5079342;28;20414;-74
2023/12/08 13:08:58;;;;;;;21.17;17.58;;;;;;;;;;5076793;28;20425;-74
2023/12/08 13:11:26;;;;;;;19.15;17.15;;;;;;;;;;5074628;28;20443;-76
2023/12/08 13:13:53;;;;;;;18.55;16.55;;;;;;;;;;5072245;28;20407;-74
2023/12/08 13:16:20;;;;;;;19.33;16.70;;;;;;;;;;5075231;28;20931;-73
2023/12/08 13:18:48;;;;;;;20.00;17.40;;;;;;;;;;5069867;28;20412;-74
2023/12/08 13:21:15;;;;;;;19.35;16.23;;;;;;;;;;5077732;28;20417;-72
2023/12/08 13:23:43;;;;;;;20.55;17.30;;;;;;;;;;5067999;28;20534;-72
2023/12/08 13:26:11;;;;;;;21.30;17.23;;;;;;;;;;5084943;28;20414;-72
2023/12/08 13:28:38;;;;;;;20.02;17.25;;;;;;;;;;5075429;28;20865;-73
2023/12/08 13:31:06;;;;;;;17.35;15.55;;;;;;;;;;5076424;28;20430;-74
2023/12/08 13:33:33;;;;;;;18.23;16.30;;;;;;;;;;5072545;28;20419;-74
2023/12/08 13:36:00;;;;;;;19.45;17.05;;;;;;;;;;5077089;28;20730;-72
2023/12/08 13:38:28;;;;;;;18.70;16.70;;;;;;;;;;5072624;28;20505;-72
2023/12/08 13:40:55;;;;;;;19.50;16.90;;;;;;;;;;5071618;28;20863;-72
2023/12/08 13:43:23;;;;;;;20.00;17.30;;;;;;;;;;5073987;28;20414;-73
2023/12/08 13:45:51;;;;;;;19.02;15.85;;;;;;;;;;5077707;28;20928;-73
2023/12/08 13:48:20;;;;;;;17.83;16.03;;;;;;;;;;5073386;28;20503;-73
2023/12/08 13:50:47;;;;;;;19.50;15.45;;;;;;;;;;5072127;28;20913;-74
2023/12/08 13:53:14;;;;;;;16.70;14.90;;;;;;;;;;5079062;28;20719;-74
2023/12/08 13:55:41;;;;;;;16.40;14.70;;;;;;;;;;5079873;28;20438;-72
2023/12/08 13:58:09;;;;;;;19.65;15.60;;;;;;;;;;5075466;28;20416;-71
2023/12/08 14:00:37;;;;;;;16.48;14.50;;;;;;;;;;5075111;28;20442;-71
2023/12/08 14:03:04;;;;;;;17.87;14.70;;;;;;;;;;5075247;28;20436;-71
2023/12/08 14:05:33;;;;;;;18.45;14.23;;;;;;;;;;5083489;28;20415;-71
2023/12/08 14:08:00;;;;;;;16.58;14.85;;;;;;;;;;5074211;28;20477;-72
2023/12/08 14:10:27;;;;;;;17.65;15.75;;;;;;;;;;5075693;28;20411;-72
2023/12/08 14:12:55;;;;;;;16.60;14.48;;;;;;;;;;5070851;28;20439;-72
2023/12/08 14:15:22;;;;;;;16.73;15.03;;;;;;;;;;5072826;28;20496;-72
2023/12/08 14:17:50;;;;;;;16.42;14.80;;;;;;;;;;5078194;28;20432;-72
2023/12/08 14:20:17;;;;;;;16.65;14.82;;;;;;;;;;5071148;28;20412;-73
2023/12/08 14:22:44;;;;;;;18.33;15.15;;;;;;;;;;5071501;28;20407;-72